Peotone Weather

Nearby METAR Reports

 

KIGQ - Lansing, Illinois, USA
Distance from station: NE 19mi, 30km
Updated: Mon, 27-Mar-2017 10:55pm CDT
Overcast
Overcast
 Wind from NE
Wind: NE 10 mph , 17 km/h
Temperature: 41°F , 5°C
Wind Chill: 35°F , 2°C
Dew Point: 37°F , 3°C
Humidity: 87%
Barometer: 29.97 inHg , 1014.9 hPa
Clouds: Overcast
Visibility: 10 miles , 16 km
Cloud details: Partly cloudy 2000 ft
Partly cloudy 3200 ft
Overcast 8000 ft
2017/03/28 03:55 KIGQ 280355Z AUTO 04009KT 10SM SCT020 SCT032 OVC080 05/03 A2997 RMK AO2 T00450031
KIKK - Kankakee, Illinois, USA
Distance from station: S 19mi, 30km
Updated: Mon, 27-Mar-2017 10:55pm CDT
Overcast
Overcast
 Wind from NNE
Wind: NNE 13 mph , 20 km/h
Temperature: 43°F , 6°C
Wind Chill: 36°F , 2°C
Dew Point: 39°F , 4°C
Humidity: 87%
Barometer: 29.96 inHg , 1014.6 hPa
Clouds: Overcast
Visibility: 10 miles , 16 km
Cloud details: Partly cloudy 1000 ft
Overcast 2800 ft
2017/03/28 03:55 KIKK 280355Z AUTO 03011KT 10SM SCT010 OVC028 06/04 A2996 RMK AO2 T00590041
 
KSJC - Joliet, Illinois, USA
Distance from station: WNW 24mi, 38km
Updated: Mon, 27-Mar-2017 10:53pm CDT
Clear
Clear
 Wind from W
Wind: W 12 mph , 19 km/h
Temperature: 54°F , 12°C
Dew Point: 45°F , 7°C
Humidity: 72%
Barometer: 30.24 inHg , 1024 hPa
Clouds: Clear
Visibility: 10 miles , 16 km
2017/03/28 03:53 KSJC 280353Z 28010KT 10SM CLR 12/07 A3024 RMK AO2 SLP240 T01220067
KLOT - Romeoville, Illinois, USA
Distance from station: NW 26mi, 41km
Updated: Mon, 27-Mar-2017 10:55pm CDT
Overcast
Overcast
 Wind from ENE
Wind: ENE 12 mph , 19 km/h
Temperature: 43°F , 6°C
Wind Chill: 37°F , 3°C
Dew Point: 41°F , 5°C
Humidity: 93%
Barometer: 29.97 inHg , 1014.9 hPa
Clouds: Overcast
Visibility: 10 miles , 16 km
Cloud details: Overcast 2200 ft
2017/03/28 03:55 KLOT 280355Z AUTO 06010KT 10SM OVC022 06/05 A2997 RMK AO2 T00600045
 
KMDW - Midway Airport Chicago, Illinois, USA
Distance from station: N 31mi, 50km
Updated: Mon, 27-Mar-2017 10:53pm CDT
Overcast
Overcast
 Wind from NNE
Wind: NNE 9 mph , 15 km/h
Temperature: 43°F , 6°C
Wind Chill: 38°F , 3°C
Dew Point: 37°F , 3°C
Humidity: 81%
Barometer: 29.98 inHg , 1015.2 hPa
Clouds: Overcast
Visibility: 10 miles , 16 km
Cloud details: Overcast 2400 ft
2017/03/28 03:53 KMDW 280353Z 02008KT 10SM OVC024 06/03 A2998 RMK AO2 SLP157 T00560028
KC09 - Morris, Illinois, USA
Distance from station: W 34mi, 54km
Updated: Mon, 27-Mar-2017 10:55pm CDT
Overcast
Overcast
 Wind from calm
Wind: Calm
Temperature: 46°F , 8°C
Dew Point: 43°F , 6°C
Humidity: 87%
Barometer: 29.96 inHg , 1014.6 hPa
Clouds: Overcast
Visibility: 7 miles , 11 km
Cloud details: Overcast 2600 ft
2017/03/28 03:55 KC09 280355Z AUTO 00000KT 7SM OVC026 08/06 A2996 RMK AO2 T00750056

Metar display script from Saratoga-Weather.org